Time;durP1;ratioP1;P1;durP2;ratioP2;P2;SDS_P1;SDS_P2;PMS_P1;PMS_P2;Temp;Humidity;BMP_temperature;BMP_pressure;BME280_temperature;BME280_humidity;BME280_pressure;Samples;Min_cycle;Max_cycle;Signal;HPM_P1;HPM_P2
2022/03/16 00:00:33;;;;;;;10.27;7.37;;;12.40;1.00;;;;;;4849073;29;20480;-79
2022/03/16 00:03:01;;;;;;;11.20;7.90;;;12.40;1.00;;;;;;4851099;29;20565;-80
2022/03/16 00:05:29;;;;;;;10.23;7.60;;;12.40;1.00;;;;;;4854412;29;20494;-79
2022/03/16 00:07:57;;;;;;;10.77;6.90;;;12.30;1.00;;;;;;4853249;29;20492;-79
2022/03/16 00:10:26;;;;;;;9.30;6.20;;;12.30;1.00;;;;;;4854361;29;20467;-78
2022/03/16 00:12:54;;;;;;;8.17;6.27;;;12.40;1.00;;;;;;4853292;29;20460;-79
2022/03/16 00:15:24;;;;;;;10.83;6.40;;;12.40;1.00;;;;;;4814978;29;1125772;-78
2022/03/16 00:17:53;;;;;;;8.50;6.10;;;12.30;1.00;;;;;;4854595;29;20689;-79
2022/03/16 00:20:22;;;;;;;9.30;5.80;;;12.30;1.00;;;;;;4855331;29;20495;-79
2022/03/16 00:22:50;;;;;;;9.97;6.40;;;12.30;1.00;;;;;;4855733;29;20543;-78
2022/03/16 00:25:18;;;;;;;9.37;6.43;;;12.30;1.00;;;;;;4853807;29;20542;-80
2022/03/16 00:27:46;;;;;;;9.13;6.20;;;12.30;1.00;;;;;;4854849;29;20491;-80
2022/03/16 00:30:15;;;;;;;9.13;5.60;;;12.40;1.00;;;;;;4854809;29;20508;-79
2022/03/16 00:32:43;;;;;;;9.30;6.30;;;12.50;1.00;;;;;;4855195;29;21033;-80
2022/03/16 00:35:12;;;;;;;7.90;5.30;;;12.30;1.00;;;;;;4853936;29;20581;-80
2022/03/16 00:37:41;;;;;;;8.70;6.20;;;12.30;1.00;;;;;;4853839;29;20465;-78
2022/03/16 00:40:11;;;;;;;7.97;5.07;;;12.40;1.00;;;;;;4851724;29;20549;-80
2022/03/16 00:42:39;;;;;;;9.27;6.10;;;12.40;1.00;;;;;;4853998;29;21462;-78
2022/03/16 00:45:08;;;;;;;8.77;6.80;;;12.30;1.00;;;;;;4851590;29;20492;-80
2022/03/16 00:47:36;;;;;;;9.73;7.00;;;12.20;1.00;;;;;;4854262;29;20898;-79
2022/03/16 00:50:06;;;;;;;10.93;6.83;;;12.30;1.00;;;;;;4866506;29;20535;-79
2022/03/16 00:52:35;;;;;;;10.30;6.60;;;12.20;1.00;;;;;;4852123;29;20479;-79
2022/03/16 00:55:04;;;;;;;12.33;7.87;;;12.10;1.00;;;;;;4851261;29;20556;-79
2022/03/16 00:57:32;;;;;;;11.50;6.87;;;12.10;1.00;;;;;;4862706;29;20551;-80
2022/03/16 01:00:00;;;;;;;13.93;8.47;;;12.10;1.00;;;;;;4853638;29;20465;-79
2022/03/16 01:02:29;;;;;;;13.00;8.17;;;12.10;1.00;;;;;;4853722;29;20466;-79
2022/03/16 01:04:57;;;;;;;12.17;7.80;;;12.10;1.00;;;;;;4851668;29;20513;-78
2022/03/16 01:07:25;;;;;;;13.63;7.87;;;12.10;1.00;;;;;;4856653;29;20477;-78
2022/03/16 01:09:55;;;;;;;15.40;8.27;;;12.10;1.00;;;;;;4851810;29;20825;-79
2022/03/16 01:12:23;;;;;;;10.83;7.67;;;12.10;1.00;;;;;;4853753;29;21284;-79
2022/03/16 01:14:51;;;;;;;15.40;8.30;;;12.10;1.00;;;;;;4853353;29;20840;-79
2022/03/16 01:17:20;;;;;;;13.77;8.50;;;12.10;1.00;;;;;;4852456;29;20454;-80
2022/03/16 01:19:48;;;;;;;16.80;8.93;;;12.00;1.00;;;;;;4853130;29;20465;-79
2022/03/16 01:22:16;;;;;;;12.60;8.20;;;12.00;1.00;;;;;;4852936;29;20460;-79
2022/03/16 01:24:44;;;;;;;17.20;8.00;;;12.00;1.00;;;;;;4854733;29;20492;-79
2022/03/16 01:27:14;;;;;;;10.17;7.47;;;12.00;1.00;;;;;;4857289;29;20495;-79
2022/03/16 01:29:47;;;;;;;13.00;7.07;;;12.00;1.00;;;;;;4858221;29;20472;-79
2022/03/16 01:32:15;;;;;;;13.20;7.70;;;12.00;1.00;;;;;;4856430;29;20473;-79
2022/03/16 01:34:43;;;;;;;9.60;7.10;;;12.10;1.00;;;;;;4856010;29;20473;-80
2022/03/16 01:37:12;;;;;;;10.47;6.97;;;12.00;1.00;;;;;;4857230;29;20460;-79
2022/03/16 01:39:40;;;;;;;12.90;7.37;;;11.90;1.00;;;;;;4855040;29;20472;-81
2022/03/16 01:42:08;;;;;;;12.97;7.97;;;12.00;1.00;;;;;;4856512;29;20500;-79
2022/03/16 01:44:47;;;;;;;10.93;7.03;;;12.00;1.00;;;;;;4856459;29;21126;-80
2022/03/16 01:47:17;;;;;;;12.20;7.30;;;12.00;1.00;;;;;;4856616;29;20484;-80
2022/03/16 01:49:46;;;;;;;16.23;9.07;;;12.00;1.00;;;;;;4855662;29;20453;-80
2022/03/16 01:52:16;;;;;;;14.23;7.40;;;12.00;1.00;;;;;;4855807;29;20465;-80
2022/03/16 01:54:44;;;;;;;11.83;7.70;;;12.10;1.00;;;;;;4855572;29;20967;-80
2022/03/16 01:57:13;;;;;;;12.90;7.77;;;12.20;1.00;;;;;;4870470;29;20521;-81
2022/03/16 01:59:43;;;;;;;14.77;8.37;;;12.20;1.00;;;;;;4858242;29;20469;-81
2022/03/16 02:02:12;;;;;;;13.80;8.40;;;12.20;1.00;;;;;;4856095;29;20468;-79
2022/03/16 02:04:42;;;;;;;13.93;8.10;;;12.10;1.00;;;;;;4853632;29;20461;-80
2022/03/16 02:07:10;;;;;;;14.40;8.87;;;12.00;1.00;;;;;;4858143;29;20469;-79
2022/03/16 02:09:38;;;;;;;13.50;8.03;;;12.10;1.00;;;;;;4854850;29;20465;-79
2022/03/16 02:12:11;;;;;;;16.07;9.27;;;12.20;1.00;;;;;;4857656;29;20468;-80
2022/03/16 02:14:40;;;;;;;17.20;9.97;;;12.20;1.00;;;;;;4855760;29;20487;-78
2022/03/16 02:17:09;;;;;;;17.93;9.90;;;12.20;1.00;;;;;;4855818;29;20477;-80
2022/03/16 02:19:37;;;;;;;21.97;10.03;;;12.10;1.00;;;;;;4856730;29;20461;-79
2022/03/16 02:22:09;;;;;;;14.10;8.90;;;12.00;1.00;;;;;;4855569;29;20454;-79
2022/03/16 02:24:38;;;;;;;14.33;9.60;;;12.10;1.00;;;;;;4852360;29;20533;-78
2022/03/16 02:27:06;;;;;;;12.67;8.87;;;12.10;1.00;;;;;;4854659;29;20457;-78
2022/03/16 02:29:35;;;;;;;18.10;9.17;;;12.20;1.00;;;;;;4853074;29;20492;-80
2022/03/16 02:32:03;;;;;;;10.77;7.83;;;12.20;1.00;;;;;;4853895;29;21153;-79
2022/03/16 02:34:32;;;;;;;13.63;7.53;;;12.20;1.00;;;;;;4854534;29;20472;-79
2022/03/16 02:37:01;;;;;;;13.70;8.33;;;12.30;1.00;;;;;;4854264;29;20547;-79
2022/03/16 02:39:29;;;;;;;14.73;7.60;;;12.20;1.00;;;;;;4869410;29;20491;-76
2022/03/16 02:41:58;;;;;;;15.23;10.60;;;12.30;1.00;;;;;;4855846;29;21230;-80
2022/03/16 02:44:27;;;;;;;20.53;12.27;;;12.20;1.00;;;;;;4853710;29;20979;-79
2022/03/16 02:46:56;;;;;;;19.53;11.57;;;12.20;1.00;;;;;;4856640;29;20462;-78
2022/03/16 02:49:24;;;;;;;20.00;12.17;;;12.20;1.00;;;;;;4854043;29;20559;-79
2022/03/16 02:51:52;;;;;;;20.10;13.00;;;12.40;1.00;;;;;;4852464;29;20480;-79
2022/03/16 02:54:20;;;;;;;21.33;12.17;;;12.10;1.00;;;;;;4853971;29;20468;-79
2022/03/16 02:56:48;;;;;;;18.13;11.10;;;12.00;1.00;;;;;;4856143;29;20480;-80
2022/03/16 02:59:18;;;;;;;23.70;13.07;;;12.20;1.00;;;;;;4851833;29;20449;-79
2022/03/16 03:01:46;;;;;;;21.40;12.70;;;11.90;1.00;;;;;;4855075;29;20468;-80
2022/03/16 03:04:15;;;;;;;20.60;13.77;;;11.90;1.00;;;;;;4854421;29;20469;-80
2022/03/16 03:06:43;;;;;;;22.70;12.80;;;11.90;1.00;;;;;;4856608;29;20578;-80
2022/03/16 03:09:11;;;;;;;23.90;13.10;;;11.80;1.00;;;;;;4854473;29;20558;-79
2022/03/16 03:11:40;;;;;;;23.50;13.93;;;11.50;99.90;;;;;;4855337;29;20467;-78
2022/03/16 03:14:08;;;;;;;24.77;13.93;;;11.50;99.90;;;;;;4852570;29;20584;-80
2022/03/16 03:16:38;;;;;;;18.97;12.00;;;11.50;99.90;;;;;;4855058;29;21218;-79
2022/03/16 03:19:06;;;;;;;19.93;12.70;;;11.50;99.90;;;;;;4853901;29;20514;-78
2022/03/16 03:21:34;;;;;;;19.70;11.73;;;11.60;99.90;;;;;;4854919;29;20520;-79
2022/03/16 03:24:02;;;;;;;20.47;12.03;;;11.70;40.60;;;;;;4853610;29;20472;-79
2022/03/16 03:26:35;;;;;;;19.80;11.30;;;11.70;11.30;;;;;;4852261;29;20482;-79
2022/03/16 03:29:03;;;;;;;27.33;13.77;;;11.80;1.00;;;;;;4851429;29;20495;-79
2022/03/16 03:31:32;;;;;;;23.73;13.10;;;11.80;1.00;;;;;;4855275;29;20461;-77
2022/03/16 03:34:01;;;;;;;24.93;13.23;;;11.60;1.00;;;;;;4851973;29;20465;-78
2022/03/16 03:36:30;;;;;;;22.90;13.33;;;11.50;90.50;;;;;;4854261;29;20535;-78
2022/03/16 03:38:59;;;;;;;20.90;12.57;;;11.40;99.90;;;;;;4853956;29;20465;-78
2022/03/16 03:41:27;;;;;;;20.30;12.67;;;11.30;99.90;;;;;;4853403;29;20477;-78
2022/03/16 03:43:55;;;;;;;22.27;13.20;;;11.50;99.90;;;;;;4851946;29;20464;-80
2022/03/16 03:46:23;;;;;;;22.30;13.33;;;11.60;99.90;;;;;;4852458;29;20488;-79
2022/03/16 03:48:52;;;;;;;18.90;13.20;;;11.60;99.90;;;;;;4852398;29;20499;-79
2022/03/16 03:51:21;;;;;;;18.07;12.30;;;11.70;30.50;;;;;;4851275;29;20902;-79
2022/03/16 03:53:50;;;;;;;20.20;12.27;;;11.70;1.00;;;;;;4852959;29;20469;-78
2022/03/16 03:56:18;;;;;;;20.83;12.10;;;11.90;1.00;;;;;;4852748;29;20492;-80
2022/03/16 03:58:46;;;;;;;21.30;12.60;;;12.00;1.00;;;;;;4855139;29;21305;-78
2022/03/16 04:01:16;;;;;;;22.70;12.13;;;11.80;1.00;;;;;;4854449;29;20471;-79
2022/03/16 04:03:45;;;;;;;23.57;13.03;;;11.70;41.50;;;;;;4867271;29;20549;-78
2022/03/16 04:06:13;;;;;;;22.00;12.17;;;11.70;54.90;;;;;;4854313;29;20491;-79
2022/03/16 04:08:43;;;;;;;25.30;13.00;;;11.80;22.50;;;;;;4854863;29;20491;-78
2022/03/16 04:11:12;;;;;;;21.00;13.50;;;11.80;3.70;;;;;;4852033;29;21044;-78
2022/03/16 04:13:40;;;;;;;25.43;14.53;;;12.00;1.00;;;;;;4850218;29;20471;-78
2022/03/16 04:16:08;;;;;;;22.60;14.50;;;12.10;1.00;;;;;;4851400;29;20505;-80
2022/03/16 04:18:37;;;;;;;21.43;12.80;;;12.10;1.00;;;;;;4853842;29;20549;-79
2022/03/16 04:21:05;;;;;;;24.77;14.00;;;12.20;1.00;;;;;;4853311;29;20471;-79
2022/03/16 04:23:33;;;;;;;23.47;14.10;;;12.00;1.00;;;;;;4848746;29;20538;-79
2022/03/16 04:26:02;;;;;;;23.77;11.83;;;12.00;1.00;;;;;;4853361;29;20468;-79
2022/03/16 04:28:31;;;;;;;21.90;12.87;;;12.00;1.00;;;;;;4853523;29;20472;-80
2022/03/16 04:31:00;;;;;;;23.27;12.73;;;12.00;1.00;;;;;;4853693;29;20465;-80
2022/03/16 04:33:28;;;;;;;23.57;12.43;;;12.00;1.00;;;;;;4853120;29;20639;-79
2022/03/16 04:35:56;;;;;;;21.40;13.70;;;11.90;1.00;;;;;;4853507;29;20544;-79
2022/03/16 04:38:24;;;;;;;21.57;12.37;;;11.90;1.00;;;;;;4853174;29;20464;-80
2022/03/16 04:40:53;;;;;;;23.57;13.30;;;11.90;1.00;;;;;;4852671;29;20994;-80
2022/03/16 04:43:22;;;;;;;22.50;13.37;;;12.10;1.00;;;;;;4849066;29;20757;-79
2022/03/16 04:45:50;;;;;;;22.57;12.23;;;12.00;1.00;;;;;;4853414;29;20516;-80
2022/03/16 04:48:19;;;;;;;20.17;12.10;;;12.00;1.00;;;;;;4853804;29;20469;-79
2022/03/16 04:50:47;;;;;;;25.10;14.07;;;12.00;1.00;;;;;;4854306;29;21020;-79
2022/03/16 04:53:16;;;;;;;21.17;12.10;;;11.90;1.00;;;;;;4852227;29;21024;-79
2022/03/16 04:55:44;;;;;;;22.97;13.10;;;11.90;1.00;;;;;;4855071;29;20516;-80
2022/03/16 04:58:13;;;;;;;22.40;14.10;;;11.80;1.00;;;;;;4852924;29;20468;-78
2022/03/16 05:00:43;;;;;;;23.70;13.23;;;11.80;1.00;;;;;;4853916;29;20532;-78
2022/03/16 05:03:15;;;;;;;19.93;11.97;;;11.70;1.00;;;;;;4848235;29;20461;-78
2022/03/16 05:05:43;;;;;;;22.93;13.37;;;11.70;1.00;;;;;;4851573;29;20518;-78
2022/03/16 05:08:12;;;;;;;23.27;12.20;;;11.70;1.00;;;;;;4853393;29;20517;-79
2022/03/16 05:10:40;;;;;;;29.80;17.80;;;11.70;1.00;;;;;;4851764;29;20559;-79
2022/03/16 05:13:08;;;;;;;26.40;15.60;;;11.80;1.00;;;;;;4847427;29;20221;-80
2022/03/16 05:15:36;;;;;;;20.53;13.93;;;11.80;1.00;;;;;;4855493;29;21088;-80
2022/03/16 05:18:06;;;;;;;24.67;13.50;;;12.00;1.00;;;;;;4849714;29;20493;-79
2022/03/16 05:20:35;;;;;;;21.23;14.23;;;12.10;1.00;;;;;;4854896;29;20491;-79
2022/03/16 05:23:03;;;;;;;20.90;12.47;;;11.90;1.00;;;;;;4853605;29;21404;-78
2022/03/16 05:25:31;;;;;;;22.80;13.80;;;11.70;1.00;;;;;;4854502;29;21149;-79
2022/03/16 05:28:00;;;;;;;21.07;12.70;;;11.80;1.00;;;;;;4850251;29;20956;-80
2022/03/16 05:30:28;;;;;;;24.57;12.90;;;11.60;1.00;;;;;;4853479;29;20514;-79
2022/03/16 05:33:01;;;;;;;19.17;11.63;;;11.60;1.00;;;;;;4861460;29;21252;-77
2022/03/16 05:35:31;;;;;;;20.47;12.23;;;11.70;1.00;;;;;;4862275;29;21232;-77
2022/03/16 05:38:02;;;;;;;19.93;11.30;;;12.00;1.00;;;;;;4851458;29;20456;-77
2022/03/16 05:40:30;;;;;;;19.90;12.40;;;11.70;1.00;;;;;;4849826;29;20464;-77
2022/03/16 05:42:58;;;;;;;22.37;11.90;;;11.70;1.00;;;;;;4852526;29;20468;-74
2022/03/16 05:45:27;;;;;;;22.37;12.77;;;11.50;1.00;;;;;;4851637;29;21188;-78
2022/03/16 05:47:55;;;;;;;23.10;12.73;;;11.40;68.10;;;;;;4852387;29;20463;-77
2022/03/16 05:50:24;;;;;;;21.57;10.90;;;11.40;96.50;;;;;;4850226;29;20541;-78
2022/03/16 05:52:54;;;;;;;21.77;11.40;;;11.50;99.90;;;;;;4852196;29;20465;-76
2022/03/16 05:55:22;;;;;;;21.53;11.50;;;11.70;99.90;;;;;;4847684;29;20479;-77
2022/03/16 05:57:50;;;;;;;25.27;15.30;;;11.50;67.70;;;;;;4848931;29;20466;-77
2022/03/16 06:00:19;;;;;;;20.27;12.93;;;11.70;38.70;;;;;;4849522;29;20200;-77
2022/03/16 06:02:48;;;;;;;23.00;14.50;;;11.80;1.00;;;;;;4853051;29;20465;-76
2022/03/16 06:05:17;;;;;;;21.53;12.67;;;11.80;1.00;;;;;;4851258;29;20516;-77
2022/03/16 06:07:45;;;;;;;22.20;13.40;;;11.80;1.00;;;;;;4854821;29;20460;-76
2022/03/16 06:10:17;;;;;;;21.53;12.33;;;11.90;1.00;;;;;;4849400;29;20480;-76
2022/03/16 06:12:56;;;;;;;23.33;14.60;;;11.80;1.00;;;;;;4851853;29;21142;-76
2022/03/16 06:15:25;;;;;;;23.20;13.37;;;11.90;1.00;;;;;;4852764;29;20508;-76
2022/03/16 06:17:55;;;;;;;21.77;15.27;;;11.80;1.00;;;;;;4850906;29;20520;-75
2022/03/16 06:20:24;;;;;;;23.37;14.40;;;11.80;12.60;;;;;;4866419;29;20485;-76
2022/03/16 06:22:52;;;;;;;24.47;15.37;;;11.80;31.10;;;;;;4850364;29;20456;-77
2022/03/16 06:25:22;;;;;;;23.00;13.73;;;11.80;55.80;;;;;;4853812;29;20991;-76
2022/03/16 06:27:51;;;;;;;22.27;14.47;;;11.80;25.70;;;;;;4849754;29;20464;-76
2022/03/16 06:30:19;;;;;;;22.90;14.97;;;11.80;44.60;;;;;;4852841;29;20576;-77
2022/03/16 06:32:47;;;;;;;27.53;15.37;;;11.80;43.70;;;;;;4854869;29;20468;-76
2022/03/16 06:35:16;;;;;;;27.50;15.43;;;11.80;82.80;;;;;;4854114;29;20512;-77
2022/03/16 06:37:46;;;;;;;28.17;15.20;;;11.80;93.90;;;;;;4853948;29;20460;-77
2022/03/16 06:40:15;;;;;;;32.90;18.63;;;11.80;95.50;;;;;;4852757;29;20469;-77
2022/03/16 06:42:49;;;;;;;25.50;14.83;;;11.80;99.90;;;;;;4854495;29;21028;-77
2022/03/16 06:45:17;;;;;;;28.33;16.10;;;11.90;64.30;;;;;;4853254;29;20487;-76
2022/03/16 06:47:45;;;;;;;34.27;18.60;;;11.80;99.90;;;;;;4852080;29;21208;-76
2022/03/16 06:50:14;;;;;;;32.00;17.50;;;11.70;99.90;;;;;;4855851;29;20480;-75
2022/03/16 06:52:42;;;;;;;33.13;17.53;;;11.70;99.90;;;;;;4855196;29;20461;-76
2022/03/16 06:55:11;;;;;;;33.57;18.30;;;11.70;99.90;;;;;;4853436;29;20869;-76
2022/03/16 06:57:40;;;;;;;29.10;17.20;;;11.70;99.90;;;;;;4852873;29;20452;-74
2022/03/16 07:00:13;;;;;;;32.77;17.47;;;11.70;99.90;;;;;;4854858;29;20493;-76
2022/03/16 07:02:53;;;;;;;29.73;16.43;;;11.80;99.90;;;;;;4854375;29;20492;-76
2022/03/16 07:05:25;;;;;;;36.23;16.63;;;11.80;99.90;;;;;;4852831;29;20487;-76
2022/03/16 07:07:53;;;;;;;33.23;18.17;;;11.80;99.90;;;;;;4854072;29;20465;-77
2022/03/16 07:10:21;;;;;;;25.87;14.13;;;11.80;99.90;;;;;;4853849;29;20492;-77
2022/03/16 07:12:49;;;;;;;27.77;17.40;;;11.80;99.90;;;;;;4851702;29;20524;-77
2022/03/16 07:15:19;;;;;;;27.27;16.10;;;11.90;99.90;;;;;;4850628;29;20919;-76
2022/03/16 07:17:47;;;;;;;30.07;16.47;;;11.80;99.90;;;;;;4852364;29;20898;-76
2022/03/16 07:20:16;;;;;;;31.80;17.33;;;11.80;99.90;;;;;;4851888;29;20460;-76
2022/03/16 07:22:44;;;;;;;28.80;15.27;;;11.90;99.90;;;;;;4853078;29;20467;-77
2022/03/16 07:25:22;;;;;;;29.17;16.37;;;12.00;99.90;;;;;;4852905;29;20477;-76
2022/03/16 07:27:50;;;;;;;29.13;15.80;;;11.90;99.90;;;;;;4854157;29;20542;-79
2022/03/16 07:30:20;;;;;;;29.23;15.43;;;11.80;99.90;;;;;;4851797;29;20518;-77
2022/03/16 07:32:48;;;;;;;24.57;14.83;;;11.80;99.90;;;;;;4849543;29;20480;-77
2022/03/16 07:35:17;;;;;;;25.73;14.77;;;11.90;99.90;;;;;;4853777;29;20488;-77
2022/03/16 07:37:47;;;;;;;28.50;13.77;;;11.80;99.90;;;;;;4852984;29;20468;-77
2022/03/16 07:40:15;;;;;;;31.80;17.40;;;11.80;99.90;;;;;;4853693;29;20970;-79
2022/03/16 07:42:46;;;;;;;27.67;15.90;;;11.60;1.00;;;;;;4854427;29;20479;-78
2022/03/16 07:45:15;;;;;;;30.60;17.30;;;11.70;1.00;;;;;;4849553;29;20469;-76
2022/03/16 07:47:46;;;;;;;36.80;21.40;;;11.60;1.00;;;;;;4854144;29;21181;-76
2022/03/16 07:50:15;;;;;;;32.37;16.93;;;11.50;1.00;;;;;;4852944;29;20484;-76
2022/03/16 07:52:43;;;;;;;31.23;16.37;;;11.60;1.00;;;;;;4850610;29;20484;-76
2022/03/16 07:55:13;;;;;;;26.33;14.80;;;11.70;1.00;;;;;;4852203;29;20481;-76
2022/03/16 07:57:43;;;;;;;22.00;13.60;;;11.80;1.00;;;;;;4855068;29;20453;-75
2022/03/16 08:00:13;;;;;;;27.63;14.90;;;11.90;99.90;;;;;;4852184;29;20453;-77
2022/03/16 08:02:43;;;;;;;29.13;15.07;;;12.10;99.90;;;;;;4852083;29;20548;-78
2022/03/16 08:05:15;;;;;;;26.40;15.77;;;12.00;99.90;;;;;;4850485;29;20480;-81
2022/03/16 08:07:43;;;;;;;27.07;15.17;;;12.10;99.90;;;;;;4854126;29;20489;-80
2022/03/16 08:10:12;;;;;;;27.17;14.20;;;12.10;99.90;;;;;;4852828;29;20960;-77
2022/03/16 08:12:40;;;;;;;24.40;14.30;;;12.20;99.90;;;;;;4852363;29;20524;-77
2022/03/16 08:15:09;;;;;;;30.47;16.67;;;12.20;99.90;;;;;;4854604;29;20499;-77
2022/03/16 08:17:37;;;;;;;24.47;15.10;;;12.20;1.00;;;;;;4854579;29;20465;-77
2022/03/16 08:20:07;;;;;;;32.00;18.40;;;12.20;1.00;;;;;;4850576;29;20469;-76
2022/03/16 08:22:37;;;;;;;25.90;16.20;;;12.20;1.00;;;;;;4852796;29;20475;-77
2022/03/16 08:25:07;;;;;;;31.57;17.00;;;12.20;1.00;;;;;;4851591;29;20842;-76
2022/03/16 08:27:37;;;;;;;26.70;16.03;;;12.20;1.00;;;;;;4854219;29;20457;-77
2022/03/16 08:30:07;;;;;;;25.97;16.20;;;12.20;1.00;;;;;;4853347;29;21035;-78
2022/03/16 08:32:35;;;;;;;29.13;16.50;;;12.30;99.90;;;;;;4853257;29;20480;-76
2022/03/16 08:35:03;;;;;;;28.57;16.80;;;12.30;99.90;;;;;;4852454;29;20488;-77
2022/03/16 08:37:31;;;;;;;28.97;16.30;;;12.30;1.00;;;;;;4851256;29;20621;-76
2022/03/16 08:40:01;;;;;;;28.67;15.70;;;12.30;99.90;;;;;;4851067;29;21030;-76
2022/03/16 08:42:30;;;;;;;27.87;14.77;;;12.30;99.90;;;;;;4866663;29;21012;-76
2022/03/16 08:44:58;;;;;;;27.50;13.70;;;12.30;99.90;;;;;;4850339;29;20539;-77
2022/03/16 08:47:26;;;;;;;26.57;15.43;;;12.40;99.90;;;;;;4851523;29;20479;-76
2022/03/16 08:49:55;;;;;;;31.17;15.47;;;12.40;99.90;;;;;;4849603;29;20879;-77
2022/03/16 08:52:24;;;;;;;29.17;16.37;;;12.50;99.90;;;;;;4852199;29;20572;-77
2022/03/16 08:54:52;;;;;;;25.40;14.90;;;12.30;99.90;;;;;;4849808;29;20571;-78
2022/03/16 08:57:21;;;;;;;26.60;14.97;;;12.20;99.90;;;;;;4852461;29;20475;-78
2022/03/16 08:59:50;;;;;;;30.30;16.13;;;12.10;99.90;;;;;;4852831;29;20488;-77
2022/03/16 09:02:19;;;;;;;27.23;16.10;;;12.10;99.90;;;;;;4852178;29;20520;-77
2022/03/16 09:04:47;;;;;;;25.93;16.10;;;12.10;99.90;;;;;;4850002;29;20468;-76
2022/03/16 09:07:15;;;;;;;31.83;16.70;;;12.00;1.00;;;;;;4848690;29;20460;-77
2022/03/16 09:09:44;;;;;;;31.70;16.47;;;12.00;1.00;;;;;;4849616;29;20474;-76
2022/03/16 09:12:12;;;;;;;33.27;17.30;;;12.10;1.00;;;;;;4850955;29;20849;-78
2022/03/16 09:14:42;;;;;;;31.23;16.80;;;12.10;1.00;;;;;;4851987;29;20552;-77
2022/03/16 09:17:11;;;;;;;30.30;16.37;;;12.00;1.00;;;;;;4850418;29;20461;-77
2022/03/16 09:19:39;;;;;;;29.87;16.10;;;12.10;1.00;;;;;;4851155;29;20477;-78
2022/03/16 09:22:08;;;;;;;25.23;15.20;;;12.20;99.90;;;;;;4850711;29;20464;-77
2022/03/16 09:24:38;;;;;;;26.10;14.93;;;12.20;99.90;;;;;;4849750;29;20473;-76
2022/03/16 09:27:07;;;;;;;24.47;14.93;;;12.20;99.90;;;;;;4853548;29;20473;-76
2022/03/16 09:29:35;;;;;;;25.40;14.57;;;12.20;99.90;;;;;;4846578;29;20469;-76
2022/03/16 09:32:09;;;;;;;26.57;15.20;;;12.10;99.90;;;;;;4852266;29;20572;-76
2022/03/16 09:34:38;;;;;;;22.83;13.67;;;12.20;99.90;;;;;;4848114;29;20511;-77
2022/03/16 09:37:06;;;;;;;24.27;13.97;;;12.30;99.90;;;;;;4850609;29;20959;-78
2022/03/16 09:39:35;;;;;;;22.63;13.13;;;12.30;99.90;;;;;;4851727;29;20877;-77
2022/03/16 09:42:04;;;;;;;30.03;15.87;;;12.30;99.90;;;;;;4853099;29;20548;-77
2022/03/16 09:44:32;;;;;;;27.73;16.80;;;12.20;99.90;;;;;;4851419;29;20460;-77
2022/03/16 09:47:02;;;;;;;27.63;15.40;;;12.20;99.90;;;;;;4852792;29;21032;-78
2022/03/16 09:49:32;;;;;;;24.30;14.93;;;12.20;99.90;;;;;;4853601;29;20509;-77
2022/03/16 09:52:02;;;;;;;26.57;14.23;;;12.30;34.10;;;;;;4856498;29;20483;-77
2022/03/16 09:54:30;;;;;;;24.70;14.13;;;12.30;6.60;;;;;;4853121;29;20455;-77
2022/03/16 09:56:59;;;;;;;25.23;14.93;;;12.30;81.80;;;;;;4852259;29;20974;-77
2022/03/16 09:59:27;;;;;;;28.80;16.00;;;12.30;99.90;;;;;;4852709;29;20462;-77
2022/03/16 10:02:00;;;;;;;20.07;13.93;;;12.20;49.50;;;;;;4852958;29;20879;-77
2022/03/16 10:04:29;;;;;;;23.73;13.80;;;12.10;99.90;;;;;;4854617;29;20453;-77
2022/03/16 10:07:01;;;;;;;27.50;13.87;;;12.20;99.90;;;;;;4856109;29;20835;-76
2022/03/16 10:15:10;;;;;;;22.77;13.57;;;12.10;99.90;;;;;;4855731;29;20567;-77
2022/03/16 10:17:45;;;;;;;22.80;13.27;;;12.20;99.90;;;;;;4855253;29;20461;-77
2022/03/16 10:20:28;;;;;;;23.30;15.20;;;12.30;99.90;;;;;;4849502;29;20543;-77
2022/03/16 10:23:00;;;;;;;21.37;13.00;;;12.40;99.90;;;;;;4853371;29;21045;-76
2022/03/16 10:25:30;;;;;;;20.77;13.10;;;12.50;99.90;;;;;;4852454;29;20481;-79
2022/03/16 10:28:13;;;;;;;20.30;13.23;;;12.50;24.90;;;;;;4852527;29;20994;-78
2022/03/16 10:30:52;;;;;;;20.63;13.67;;;12.50;41.20;;;;;;4853705;29;20844;-77
2022/03/16 10:33:22;;;;;;;19.93;12.37;;;12.40;1.00;;;;;;4853892;29;20500;-77
2022/03/16 10:36:04;;;;;;;15.20;10.77;;;12.40;1.00;;;;;;4855578;29;20491;-81
2022/03/16 10:38:38;;;;;;;16.40;11.40;;;12.50;1.00;;;;;;4850437;29;20545;-81
2022/03/16 10:41:12;;;;;;;18.60;12.53;;;12.50;1.00;;;;;;4854319;29;20475;-80
2022/03/16 10:46:35;;;;;;;18.87;11.93;;;12.70;1.00;;;;;;4852508;29;20896;-77
2022/03/16 10:49:06;;;;;;;19.07;12.90;;;12.60;1.00;;;;;;4853628;29;20996;-78
2022/03/16 10:51:35;;;;;;;17.63;11.13;;;12.70;1.00;;;;;;4857521;29;20472;-77
2022/03/16 10:54:26;;;;;;;17.30;11.40;;;12.80;1.00;;;;;;4857760;29;20452;-77
2022/03/16 10:56:55;;;;;;;18.10;11.57;;;12.80;1.00;;;;;;4857187;29;20882;-78
2022/03/16 10:59:29;;;;;;;19.57;12.87;;;12.80;1.00;;;;;;4857648;29;20473;-78
2022/03/16 11:02:03;;;;;;;19.43;11.40;;;12.80;1.00;;;;;;4856962;29;20469;-77
2022/03/16 11:04:33;;;;;;;18.40;12.23;;;13.00;1.00;;;;;;4856902;29;20500;-78
2022/03/16 11:07:03;;;;;;;19.87;10.73;;;13.00;1.00;;;;;;4852305;29;20468;-78
2022/03/16 11:09:34;;;;;;;17.07;11.40;;;13.00;1.00;;;;;;4854391;29;20464;-78
2022/03/16 11:14:58;;;;;;;17.23;12.07;;;12.90;1.00;;;;;;4855948;29;20572;-77
2022/03/16 11:17:27;;;;;;;14.63;9.90;;;12.90;1.00;;;;;;4854116;29;20449;-78
2022/03/16 11:19:56;;;;;;;16.93;11.80;;;12.90;1.00;;;;;;4849219;29;20973;-78
2022/03/16 11:22:26;;;;;;;18.00;11.17;;;13.00;1.00;;;;;;4847976;29;20462;-78
2022/03/16 11:25:01;;;;;;;15.63;11.17;;;13.10;1.00;;;;;;4852722;29;20500;-77
2022/03/16 11:27:41;;;;;;;14.33;10.23;;;13.10;1.00;;;;;;4853638;29;20975;-77
2022/03/16 11:30:15;;;;;;;16.97;10.90;;;12.80;1.00;;;;;;4867139;29;20456;-77
2022/03/16 11:32:45;;;;;;;20.63;12.57;;;12.90;1.00;;;;;;4856640;29;20496;-78
2022/03/16 11:35:15;;;;;;;21.37;13.80;;;13.10;1.00;;;;;;4862055;29;21096;-79
2022/03/16 11:37:46;;;;;;;17.73;11.33;;;13.10;1.00;;;;;;4855685;29;20533;-77
2022/03/16 11:40:20;;;;;;;17.10;10.80;;;13.10;1.00;;;;;;4854828;29;20474;-78
2022/03/16 11:43:25;;;;;;;16.37;10.80;;;13.10;1.00;;;;;;4854687;29;20459;-78
2022/03/16 11:45:57;;;;;;;17.13;10.20;;;13.10;1.00;;;;;;4853239;29;21092;-78
2022/03/16 11:48:45;;;;;;;16.10;10.53;;;13.10;1.00;;;;;;4853302;29;20556;-77
2022/03/16 11:51:25;;;;;;;15.90;10.60;;;13.10;1.00;;;;;;4848666;29;20466;-78
2022/03/16 11:54:11;;;;;;;16.87;11.07;;;13.10;1.00;;;;;;4850997;29;20477;-77
2022/03/16 11:56:58;;;;;;;14.87;11.00;;;13.00;1.00;;;;;;4867333;29;20495;-76
2022/03/16 11:59:40;;;;;;;15.57;10.73;;;13.10;1.00;;;;;;4855762;29;21229;-78
2022/03/16 12:02:12;;;;;;;19.53;11.33;;;13.20;1.00;;;;;;4855846;29;20452;-77
2022/03/16 12:04:42;;;;;;;16.40;10.00;;;13.40;1.00;;;;;;4857024;29;20497;-78
2022/03/16 12:07:12;;;;;;;18.90;11.10;;;13.30;1.00;;;;;;4851340;29;20476;-77
2022/03/16 12:09:45;;;;;;;14.70;9.53;;;13.30;1.00;;;;;;4849000;29;20464;-77
2022/03/16 12:15:27;;;;;;;14.47;10.87;;;13.30;1.00;;;;;;4853589;29;20507;-78
2022/03/16 12:18:19;;;;;;;15.67;9.70;;;13.30;1.00;;;;;;4864776;29;20462;-75
2022/03/16 12:20:53;;;;;;;15.03;9.70;;;13.30;1.00;;;;;;4852972;29;21048;-78
2022/03/16 12:23:52;;;;;;;18.50;10.53;;;13.30;1.00;;;;;;4857298;29;20484;-78
2022/03/16 12:26:24;;;;;;;16.13;10.67;;;13.40;1.00;;;;;;4854665;29;20481;-77
2022/03/16 12:29:03;;;;;;;15.03;9.73;;;13.40;1.00;;;;;;4848480;29;20984;-78
2022/03/16 12:31:31;;;;;;;16.40;11.27;;;13.40;99.90;;;;;;4852599;29;20474;-78
2022/03/16 12:33:59;;;;;;;16.00;10.60;;;13.40;1.00;;;;;;4847561;29;20579;-78
2022/03/16 12:36:30;;;;;;;14.07;9.40;;;13.30;1.00;;;;;;4852253;29;20481;-79
2022/03/16 12:39:00;;;;;;;16.80;10.10;;;13.30;1.00;;;;;;4845287;29;20473;-77
2022/03/16 12:44:18;;;;;;;13.80;9.70;;;13.50;99.90;;;;;;4851367;29;20476;-77
2022/03/16 12:46:53;;;;;;;17.10;10.23;;;13.50;99.90;;;;;;4853686;29;20490;-78
2022/03/16 12:49:23;;;;;;;15.60;9.67;;;13.60;99.90;;;;;;4846790;29;21075;-77
2022/03/16 12:51:53;;;;;;;16.70;10.33;;;13.60;99.90;;;;;;4851633;29;21214;-78
2022/03/16 12:54:29;;;;;;;15.47;10.53;;;13.50;99.90;;;;;;4850638;29;20485;-77
2022/03/16 12:57:02;;;;;;;18.60;9.93;;;13.40;99.90;;;;;;4851436;29;20495;-78
2022/03/16 12:59:34;;;;;;;16.67;10.73;;;13.50;99.90;;;;;;4851660;29;20458;-78
2022/03/16 13:02:05;;;;;;;15.50;10.80;;;13.60;99.90;;;;;;4848652;29;20464;-78
2022/03/16 13:04:34;;;;;;;14.90;9.90;;;13.70;99.90;;;;;;4850055;29;20464;-77
2022/03/16 13:07:02;;;;;;;11.70;8.70;;;13.60;99.90;;;;;;4852169;29;20478;-78